Terminal Aerodrome Forecast
Issued by NWS

Home | Current Version | Previous Version | Text Only | Print | Product List | Glossary On
Versions: 1 2 3 4 5 6 7 8 9 10 11 12 13 14 15 16 17 18 19 20 21 22 23 24 25 26 27 28
000
FTUS43 KDMX 250826 AAC
TAFOTM
TAF AMD
KOTM 250826Z 2508/2606 29006KT 1/4SM FG VV001
     FM251200 30004KT 5SM BR SCT010
     FM251500 36007KT P6SM SKC
     FM260300 10004KT P6SM SCT250=

USA.gov is the U.S. government's official web portal to all federal, state and local government web resources and services.